Osseo, Michigan
Current Conditions -  °F | °C
As of 11:35 AM on Thursday 23 Oct 2014 (Local Time) from KJYM Reporting Station
Clear Clear  
Wind Chill: 46°   Ceiling: Unl
Heat Index: 49°   Visibility: 10mi
Dew Point: 48°   Wind: 7mph
Humidity: 96%   Direction: 260°W
Pressure: 30.24"   Gusts: NA
Location:  41.89°N, 84.54°W
Report Text: KJYM 231535Z AUTO 26006KT 10SM CLR 09/09 A3024 RMK AO2 T00930087
Loading
Personal Weather Stations






























Interactive Weather Map
Tropical Storm Tracking
New forecast layout! Learn more

10-Day Weather Forecast

Advertisements
Track Severe Weather on mobile